Joetown, Iowa
Current Conditions -  °F | °C
As of 8:55 AM on Thursday 30 Oct 2014 (Local Time) from KAWG Reporting Station
Overcast Overcast  
Wind Chill: 39°   Ceiling: 9500
Heat Index: 43°   Visibility: 10mi
Dew Point: 39°   Wind: 6mph
Humidity: 87%   Direction: 130°SE
Pressure: 30.09"   Gusts: NA
Location:  41.4676°N, 91.7053°W
Report Text: KAWG 301355Z AUTO 13005KT 10SM SCT075 OVC095 06/04 A3009 RMK AO2
Loading
Personal Weather Stations






























Interactive Weather Map
Tropical Storm Tracking
New forecast layout! Learn more

10-Day Weather Forecast

Advertisements
Track Severe Weather on mobile